createdAt,value
2019-06-26T00:01:56.153Z,20.90
2019-06-26T00:04:25.679Z,18.77
2019-06-26T00:06:52.287Z,19.45
2019-06-26T00:09:18.916Z,18.15
2019-06-26T00:11:47.359Z,20.88
2019-06-26T00:14:14.045Z,21.62
2019-06-26T00:16:40.723Z,19.20
2019-06-26T00:19:07.328Z,22.60
2019-06-26T00:21:34.318Z,19.02
2019-06-26T00:24:01.910Z,20.75
2019-06-26T00:26:29.855Z,21.40
2019-06-26T00:28:57.535Z,18.98
2019-06-26T00:31:24.469Z,21.23
2019-06-26T00:33:52.115Z,21.35
2019-06-26T00:36:18.808Z,18.82
2019-06-26T00:38:45.393Z,23.07
2019-06-26T00:41:12.098Z,21.25
2019-06-26T00:43:42.636Z,17.48
2019-06-26T00:46:07.311Z,20.55
2019-06-26T00:48:33.975Z,22.32
2019-06-26T00:51:01.040Z,19.30
2019-06-26T00:53:27.699Z,21.10
2019-06-26T00:55:55.225Z,20.52
2019-06-26T00:58:22.406Z,16.07
2019-06-26T01:00:50.528Z,21.23
2019-06-26T01:03:17.162Z,19.40
2019-06-26T01:05:44.969Z,19.80
2019-06-26T01:08:11.600Z,21.25
2019-06-26T01:10:38.224Z,21.52
2019-06-26T01:13:04.987Z,23.30
2019-06-26T01:15:32.704Z,20.90
2019-06-26T01:17:59.351Z,22.05
2019-06-26T01:20:28.228Z,22.32
2019-06-26T01:22:54.848Z,22.52
2019-06-26T01:25:21.851Z,20.32
2019-06-26T01:27:48.462Z,22.45
2019-06-26T01:30:16.891Z,20.30
2019-06-26T01:32:44.627Z,20.72
2019-06-26T01:35:11.406Z,18.15
2019-06-26T01:37:39.008Z,20.40
2019-06-26T01:40:07.620Z,20.27
2019-06-26T01:42:34.305Z,17.48
2019-06-26T01:45:01.024Z,18.23
2019-06-26T01:47:27.588Z,19.10
2019-06-26T01:49:54.352Z,21.77
2019-06-26T01:52:20.921Z,22.50
2019-06-26T01:54:47.509Z,22.98
2019-06-26T01:57:14.277Z,19.52
2019-06-26T01:59:42.706Z,20.00
2019-06-26T02:02:11.161Z,23.15
2019-06-26T02:04:39.038Z,23.30
2019-06-26T02:07:06.083Z,18.27
2019-06-26T02:09:32.716Z,24.70
2019-06-26T02:12:00.505Z,20.72
2019-06-26T02:14:31.469Z,18.02
2019-06-26T02:16:57.183Z,22.90
2019-06-26T02:19:25.403Z,22.30
2019-06-26T02:21:52.337Z,21.37
2019-06-26T02:24:18.958Z,21.37
2019-06-26T02:26:47.374Z,25.95
2019-06-26T02:29:15.638Z,21.52
2019-06-26T02:31:42.287Z,21.40
2019-06-26T02:34:11.813Z,22.13
2019-06-26T02:36:38.441Z,23.45
2019-06-26T02:39:05.684Z,20.23
2019-06-26T02:41:34.787Z,21.50
2019-06-26T02:44:01.535Z,23.75
2019-06-26T02:46:28.196Z,21.62
2019-06-26T02:48:54.769Z,21.17
2019-06-26T02:51:21.409Z,19.00
2019-06-26T02:53:48.071Z,22.07
2019-06-26T02:56:14.673Z,22.07
2019-06-26T02:58:41.287Z,22.40
2019-06-26T03:01:07.944Z,18.25
2019-06-26T03:03:34.602Z,17.55
2019-06-26T03:06:01.272Z,18.75
2019-06-26T03:08:28.969Z,21.65
2019-06-26T03:10:56.213Z,22.10
2019-06-26T03:13:22.921Z,20.77
2019-06-26T03:15:50.934Z,21.50
2019-06-26T03:18:17.674Z,17.20
2019-06-26T03:20:53.817Z,18.80
2019-06-26T03:23:20.447Z,22.35
2019-06-26T03:25:47.074Z,19.77
2019-06-26T03:28:13.681Z,20.05
2019-06-26T03:30:40.352Z,21.87
2019-06-26T03:33:07.015Z,19.17
2019-06-26T03:35:35.487Z,18.05
2019-06-26T03:38:03.485Z,19.75
2019-06-26T03:40:30.223Z,20.45
2019-06-26T03:42:56.870Z,23.47
2019-06-26T03:45:26.417Z,20.48
2019-06-26T03:47:53.498Z,20.62
2019-06-26T03:50:20.185Z,21.50
2019-06-26T03:52:46.831Z,21.48
2019-06-26T03:55:13.468Z,24.30
2019-06-26T03:57:40.103Z,26.00
2019-06-26T04:00:07.633Z,25.35
2019-06-26T04:02:34.231Z,27.37
2019-06-26T04:05:00.909Z,26.87
2019-06-26T04:07:27.584Z,28.07
2019-06-26T04:09:54.190Z,25.90
2019-06-26T04:12:21.154Z,21.40
2019-06-26T04:14:47.780Z,25.50
2019-06-26T04:17:14.394Z,24.67
2019-06-26T04:19:41.303Z,21.93
2019-06-26T04:22:08.060Z,27.05
2019-06-26T04:24:36.958Z,24.57
2019-06-26T04:27:03.595Z,27.27
2019-06-26T04:29:30.234Z,28.85
2019-06-26T04:31:56.840Z,33.20
2019-06-26T04:34:23.452Z,32.30
2019-06-26T04:36:50.202Z,28.92
2019-06-26T04:39:16.824Z,28.42
2019-06-26T04:41:43.480Z,27.98
2019-06-26T04:44:10.154Z,28.45
2019-06-26T04:46:36.752Z,31.85
2019-06-26T04:49:03.356Z,26.25
2019-06-26T04:51:30.011Z,24.40
2019-06-26T04:53:56.611Z,20.85
2019-06-26T04:56:23.222Z,22.52
2019-06-26T04:58:50.385Z,24.30
2019-06-26T05:01:17.001Z,23.35
2019-06-26T05:03:43.623Z,27.17
2019-06-26T05:06:10.293Z,25.55
2019-06-26T05:08:38.085Z,26.23
2019-06-26T05:11:04.741Z,29.20
2019-06-26T05:13:31.417Z,29.00
2019-06-26T05:16:10.579Z,35.38
2019-06-26T05:18:26.899Z,28.52
2019-06-26T05:20:53.580Z,30.77
2019-06-26T05:23:20.520Z,27.65
2019-06-26T05:25:47.247Z,28.65
2019-06-26T05:28:15.901Z,21.68
2019-06-26T05:30:42.516Z,26.77
2019-06-26T05:33:10.679Z,25.75
2019-06-26T05:35:37.308Z,26.62
2019-06-26T05:38:03.934Z,22.05
2019-06-26T05:40:30.644Z,22.58
2019-06-26T05:42:58.573Z,24.92
2019-06-26T05:45:25.890Z,24.95
2019-06-26T05:47:52.606Z,29.18
2019-06-26T05:50:19.769Z,29.05
2019-06-26T05:52:46.682Z,28.87
2019-06-26T05:55:13.815Z,30.12
2019-06-26T05:57:41.879Z,25.02
2019-06-26T06:00:11.460Z,30.35
2019-06-26T06:02:38.351Z,33.48
2019-06-26T06:05:08.823Z,30.30
2019-06-26T06:07:35.543Z,31.55
2019-06-26T06:10:03.193Z,24.57
2019-06-26T06:12:29.867Z,31.73
2019-06-26T06:14:56.405Z,27.87
2019-06-26T06:17:23.005Z,32.93
2019-06-26T06:19:49.662Z,21.95
2019-06-26T06:22:16.264Z,31.85
2019-06-26T06:24:42.886Z,32.03
2019-06-26T06:27:09.765Z,27.20
2019-06-26T06:29:36.406Z,27.00
2019-06-26T06:32:03.015Z,30.45
2019-06-26T06:34:29.674Z,27.13
2019-06-26T06:36:56.270Z,26.17
2019-06-26T06:39:22.872Z,26.93
2019-06-26T06:41:49.523Z,30.17
2019-06-26T06:44:16.233Z,31.30
2019-06-26T06:46:42.851Z,24.55
2019-06-26T06:49:09.511Z,25.75
2019-06-26T06:51:36.493Z,26.95
2019-06-26T06:54:03.916Z,27.15
2019-06-26T06:56:30.626Z,26.10
2019-06-26T06:58:57.224Z,26.85
2019-06-26T07:01:23.819Z,25.17
2019-06-26T07:03:50.435Z,24.52
2019-06-26T07:06:18.151Z,28.67
2019-06-26T07:08:44.727Z,25.27
2019-06-26T07:11:11.383Z,22.45
2019-06-26T07:13:37.969Z,24.92
2019-06-26T07:16:04.616Z,27.93
2019-06-26T07:18:31.171Z,24.65
2019-06-26T07:20:57.767Z,25.25
2019-06-26T07:23:25.046Z,25.35
2019-06-26T07:25:51.753Z,23.90
2019-06-26T07:28:18.696Z,21.48
2019-06-26T07:30:46.458Z,22.67
2019-06-26T07:33:13.077Z,25.05
2019-06-26T07:38:54.087Z,22.70
2019-06-26T07:41:20.639Z,23.57
2019-06-26T07:43:47.261Z,24.30
2019-06-26T07:46:14.019Z,25.20
2019-06-26T07:48:41.326Z,18.00
2019-06-26T07:51:08.257Z,21.30
2019-06-26T07:53:35.098Z,15.55
2019-06-26T07:56:01.712Z,17.82
2019-06-26T07:58:28.287Z,18.27
2019-06-26T08:00:54.886Z,14.98
2019-06-26T08:03:23.271Z,17.27
2019-06-26T08:05:49.855Z,20.62
2019-06-26T08:08:18.258Z,19.37
2019-06-26T08:10:44.837Z,20.00
2019-06-26T08:13:11.414Z,19.12
2019-06-26T08:15:39.785Z,19.92
2019-06-26T08:18:06.557Z,19.92
2019-06-26T08:20:47.038Z,19.98
2019-06-26T08:23:03.525Z,16.73
2019-06-26T08:25:30.073Z,17.10
2019-06-26T08:27:56.653Z,17.80
2019-06-26T08:30:25.135Z,18.90
2019-06-26T08:32:51.763Z,19.05
2019-06-26T08:35:18.393Z,13.98
2019-06-26T08:37:45.068Z,16.65
2019-06-26T08:40:13.938Z,17.17
2019-06-26T08:42:40.703Z,14.28
2019-06-26T08:45:07.859Z,16.52
2019-06-26T08:47:34.827Z,14.75
2019-06-26T08:50:03.464Z,15.18
2019-06-26T08:52:33.537Z,16.87
2019-06-26T08:58:04.770Z,15.05
2019-06-26T09:00:31.366Z,13.75
2019-06-26T09:02:57.971Z,16.25
2019-06-26T09:05:24.675Z,15.65
2019-06-26T09:07:52.654Z,14.43
2019-06-26T09:10:19.600Z,13.13
2019-06-26T09:12:47.296Z,15.43
2019-06-26T09:15:13.876Z,16.73
2019-06-26T09:17:40.524Z,14.68
2019-06-26T09:20:07.734Z,13.25
2019-06-26T09:22:34.492Z,15.85
2019-06-26T09:25:01.114Z,14.03
2019-06-26T09:27:27.752Z,13.70
2019-06-26T09:29:54.499Z,18.05
2019-06-26T09:32:21.150Z,19.02
2019-06-26T09:34:47.819Z,13.40
2019-06-26T09:37:14.406Z,13.95
2019-06-26T09:39:41.038Z,16.20
2019-06-26T09:42:08.710Z,15.88
2019-06-26T09:44:35.325Z,15.53
2019-06-26T09:47:01.926Z,14.58
2019-06-26T09:49:28.584Z,15.72
2019-06-26T09:51:55.343Z,18.48
2019-06-26T09:54:22.108Z,13.20
2019-06-26T09:56:48.608Z,11.60
2019-06-26T09:59:15.325Z,10.68
2019-06-26T10:01:42.100Z,10.50
2019-06-26T10:04:08.794Z,12.50
2019-06-26T10:06:35.445Z,11.85
2019-06-26T10:09:03.232Z,17.15
2019-06-26T10:11:31.203Z,11.15
2019-06-26T10:13:57.814Z,14.78
2019-06-26T10:16:25.476Z,12.90
2019-06-26T10:19:05.635Z,12.88
2019-06-26T10:21:23.586Z,13.60
2019-06-26T10:23:49.462Z,12.40
2019-06-26T10:26:16.194Z,13.03
2019-06-26T10:28:42.906Z,11.33
2019-06-26T10:31:09.596Z,11.78
2019-06-26T10:33:36.325Z,15.93
2019-06-26T10:36:03.112Z,11.33
2019-06-26T10:38:29.693Z,8.98
2019-06-26T10:40:56.374Z,9.00
2019-06-26T10:43:23.066Z,10.80
2019-06-26T10:45:49.734Z,10.78
2019-06-26T10:48:16.607Z,10.53
2019-06-26T10:50:50.036Z,10.45
2019-06-26T10:53:11.981Z,10.18
2019-06-26T10:55:38.775Z,12.50
2019-06-26T10:58:05.339Z,13.95
2019-06-26T11:00:32.213Z,11.57
2019-06-26T11:02:59.940Z,10.03
2019-06-26T11:05:26.621Z,10.30
2019-06-26T11:07:54.361Z,9.90
2019-06-26T11:10:21.212Z,8.45
2019-06-26T11:12:49.097Z,9.98
2019-06-26T11:15:16.177Z,13.90
2019-06-26T11:17:42.829Z,10.70
2019-06-26T11:20:10.194Z,10.28
2019-06-26T11:22:36.877Z,9.40
2019-06-26T11:25:05.608Z,12.63
2019-06-26T11:27:32.287Z,11.40
2019-06-26T11:29:58.902Z,10.50
2019-06-26T11:32:25.531Z,12.58
2019-06-26T11:34:52.152Z,12.35
2019-06-26T11:37:18.714Z,8.93
2019-06-26T11:39:47.516Z,9.25
2019-06-26T11:42:14.149Z,12.07
2019-06-26T11:44:44.100Z,14.98
2019-06-26T11:47:11.157Z,13.43
2019-06-26T11:49:37.821Z,13.18
2019-06-26T11:52:04.483Z,9.45
2019-06-26T11:54:31.438Z,9.18
2019-06-26T11:56:59.132Z,10.13
2019-06-26T11:59:25.815Z,8.95
2019-06-26T12:01:52.446Z,10.45
2019-06-26T12:04:19.141Z,10.30
2019-06-26T12:06:46.370Z,11.10
2019-06-26T12:09:13.090Z,11.60
2019-06-26T12:11:39.679Z,9.15
2019-06-26T12:14:06.535Z,9.88
2019-06-26T12:16:33.349Z,12.60
2019-06-26T12:19:00.024Z,13.20
2019-06-26T12:21:26.628Z,8.73
2019-06-26T12:23:53.320Z,9.83
2019-06-26T12:26:19.887Z,14.53
2019-06-26T12:28:46.545Z,10.03
2019-06-26T12:31:13.400Z,14.60
2019-06-26T12:33:40.151Z,10.00
2019-06-26T12:36:06.905Z,9.33
2019-06-26T12:38:33.561Z,15.05
2019-06-26T12:41:01.255Z,10.80
2019-06-26T12:43:29.915Z,10.38
2019-06-26T12:45:57.663Z,9.45
2019-06-26T12:48:24.274Z,9.60
2019-06-26T12:50:51.598Z,11.25
2019-06-26T12:53:18.475Z,11.50
2019-06-26T12:55:46.328Z,9.55
2019-06-26T12:58:19.488Z,10.13
2019-06-26T13:00:44.099Z,14.20
2019-06-26T13:03:11.229Z,11.00
2019-06-26T13:05:37.871Z,12.43
2019-06-26T13:08:04.510Z,9.45
2019-06-26T13:10:45.001Z,10.15
2019-06-26T13:12:59.664Z,10.98
2019-06-26T13:15:26.429Z,9.98
2019-06-26T13:17:53.101Z,13.70
2019-06-26T13:20:20.378Z,12.65
2019-06-26T13:22:48.961Z,10.13
2019-06-26T13:25:16.278Z,8.90
2019-06-26T13:27:43.129Z,11.05
2019-06-26T13:30:10.201Z,13.90
2019-06-26T13:32:36.861Z,8.60
2019-06-26T13:35:06.882Z,10.20
2019-06-26T13:37:33.574Z,9.65
2019-06-26T13:40:00.192Z,9.63
2019-06-26T13:42:26.791Z,10.75
2019-06-26T13:44:53.472Z,11.75
2019-06-26T13:47:20.100Z,12.73
2019-06-26T13:49:46.766Z,17.02
2019-06-26T13:52:13.537Z,11.33
2019-06-26T13:54:41.261Z,10.18
2019-06-26T13:57:07.848Z,11.68
2019-06-26T13:59:34.447Z,13.15
2019-06-26T14:02:01.119Z,11.00
2019-06-26T14:04:27.686Z,10.45
2019-06-26T14:06:54.467Z,10.90
2019-06-26T14:09:21.055Z,10.70
2019-06-26T14:11:48.712Z,11.93
2019-06-26T14:14:15.308Z,10.90
2019-06-26T14:16:42.743Z,10.28
2019-06-26T14:19:09.357Z,10.53
2019-06-26T14:21:36.086Z,13.53
2019-06-26T14:24:02.780Z,10.35
2019-06-26T14:26:29.354Z,10.30
2019-06-26T14:28:55.981Z,10.08
2019-06-26T14:31:23.917Z,9.88
2019-06-26T14:33:50.642Z,16.35
2019-06-26T14:36:17.252Z,12.20
2019-06-26T14:38:43.961Z,12.30
2019-06-26T14:41:10.562Z,10.18
2019-06-26T14:43:37.213Z,11.25
2019-06-26T14:46:04.000Z,11.20
2019-06-26T14:48:30.603Z,14.35
2019-06-26T14:50:57.242Z,10.48
2019-06-26T14:53:23.847Z,10.75
2019-06-26T14:55:50.520Z,12.88
2019-06-26T14:58:17.127Z,11.10
2019-06-26T15:00:43.743Z,9.85
2019-06-26T15:03:10.459Z,11.28
2019-06-26T15:05:36.929Z,10.53
2019-06-26T15:08:03.506Z,12.50
2019-06-26T15:10:30.181Z,14.58
2019-06-26T15:12:57.345Z,11.20
2019-06-26T15:15:25.062Z,14.07
2019-06-26T15:17:51.761Z,11.35
2019-06-26T15:20:18.561Z,11.22
2019-06-26T15:22:45.188Z,11.40
2019-06-26T15:25:12.316Z,12.90
2019-06-26T15:27:38.925Z,10.88
2019-06-26T15:30:08.514Z,12.73
2019-06-26T15:32:35.131Z,11.28
2019-06-26T15:35:03.769Z,12.53
2019-06-26T15:37:30.402Z,19.60
2019-06-26T15:39:56.975Z,11.03
2019-06-26T15:42:23.741Z,12.05
2019-06-26T15:44:50.337Z,15.23
2019-06-26T15:47:16.972Z,13.53
2019-06-26T15:49:43.566Z,11.75
2019-06-26T15:52:15.035Z,11.40
2019-06-26T15:54:38.647Z,16.90
2019-06-26T15:57:05.320Z,12.28
2019-06-26T15:59:31.916Z,13.18
2019-06-26T16:02:00.369Z,12.15
2019-06-26T16:04:27.099Z,12.40
2019-06-26T16:06:53.670Z,11.28
2019-06-26T16:09:20.418Z,11.78
2019-06-26T16:11:47.053Z,10.43
2019-06-26T16:14:13.845Z,11.90
2019-06-26T16:16:42.191Z,13.62
2019-06-26T16:19:13.174Z,11.22
2019-06-26T16:21:39.802Z,11.65
2019-06-26T16:24:06.392Z,12.58
2019-06-26T16:26:33.015Z,12.65
2019-06-26T16:28:59.658Z,13.18
2019-06-26T16:31:26.241Z,12.73
2019-06-26T16:33:52.888Z,11.88
2019-06-26T16:36:19.505Z,12.03
2019-06-26T16:38:46.177Z,11.80
2019-06-26T16:41:12.892Z,11.68
2019-06-26T16:43:39.366Z,13.58
2019-06-26T16:46:06.049Z,14.58
2019-06-26T16:48:32.722Z,12.45
2019-06-26T16:51:00.355Z,12.63
2019-06-26T16:53:26.953Z,13.08
2019-06-26T16:55:55.399Z,13.40
2019-06-26T16:58:22.279Z,13.13
2019-06-26T17:00:49.737Z,13.05
2019-06-26T17:03:16.699Z,14.03
2019-06-26T17:05:43.243Z,13.00
2019-06-26T17:08:09.859Z,14.05
2019-06-26T17:10:36.537Z,12.50
2019-06-26T17:13:04.114Z,12.70
2019-06-26T17:15:30.710Z,12.33
2019-06-26T17:17:57.502Z,12.73
2019-06-26T17:20:24.256Z,17.07
2019-06-26T17:23:04.278Z,13.05
2019-06-26T17:25:19.447Z,15.18
2019-06-26T17:27:46.126Z,13.32
2019-06-26T17:30:12.953Z,12.23
2019-06-26T17:32:39.590Z,13.22
2019-06-26T17:35:06.613Z,13.90
2019-06-26T17:37:34.267Z,12.30
2019-06-26T17:40:01.076Z,16.50
2019-06-26T17:42:27.682Z,14.75
2019-06-26T17:44:54.295Z,13.98
2019-06-26T17:47:20.955Z,15.15
2019-06-26T17:49:47.831Z,18.20
2019-06-26T17:52:14.414Z,16.37
2019-06-26T17:54:41.053Z,18.07
2019-06-26T17:57:07.627Z,15.88
2019-06-26T17:59:34.302Z,15.30
2019-06-26T18:02:01.001Z,14.53
2019-06-26T18:04:27.576Z,16.57
2019-06-26T18:06:57.047Z,15.43
2019-06-26T18:09:23.759Z,14.58
2019-06-26T18:11:50.384Z,15.18
2019-06-26T18:14:16.999Z,14.18
2019-06-26T18:16:43.641Z,15.63
2019-06-26T18:19:10.384Z,16.85
2019-06-26T18:21:36.986Z,17.40
2019-06-26T18:24:03.688Z,19.15
2019-06-26T18:26:30.321Z,17.60
2019-06-26T18:28:56.907Z,15.93
2019-06-26T18:31:23.567Z,18.45
2019-06-26T18:33:50.277Z,19.62
2019-06-26T18:36:16.867Z,21.95
2019-06-26T18:38:43.493Z,17.77
2019-06-26T18:41:10.138Z,16.57
2019-06-26T18:43:36.710Z,18.40
2019-06-26T18:46:03.287Z,22.90
2019-06-26T18:48:29.939Z,17.57
2019-06-26T18:50:57.511Z,17.62
2019-06-26T18:53:24.282Z,22.95
2019-06-26T18:55:50.875Z,24.37
2019-06-26T18:58:17.483Z,22.87
2019-06-26T19:00:44.131Z,20.72
2019-06-26T19:03:10.751Z,19.75
2019-06-26T19:05:37.408Z,22.77
2019-06-26T19:08:04.039Z,20.60
2019-06-26T19:10:30.623Z,21.35
2019-06-26T19:12:57.255Z,21.23
2019-06-26T19:15:23.831Z,22.07
2019-06-26T19:17:50.520Z,20.40
2019-06-26T19:20:18.693Z,19.50
2019-06-26T19:22:47.552Z,21.10
2019-06-26T19:25:14.017Z,22.70
2019-06-26T19:27:40.681Z,24.57
2019-06-26T19:30:08.955Z,21.80
2019-06-26T19:32:37.512Z,25.77
2019-06-26T19:35:18.450Z,22.50
2019-06-26T19:37:35.076Z,23.83
2019-06-26T19:40:01.669Z,22.05
2019-06-26T19:42:28.295Z,21.75
2019-06-26T19:44:55.278Z,24.10
2019-06-26T19:47:21.890Z,26.17
2019-06-26T19:49:48.465Z,23.18
2019-06-26T19:52:15.128Z,25.90
2019-06-26T19:54:41.682Z,23.70
2019-06-26T19:57:08.352Z,29.90
2019-06-26T19:59:34.961Z,23.22
2019-06-26T20:05:50.641Z,24.35
2019-06-26T20:08:17.255Z,26.42
2019-06-26T20:10:43.840Z,21.80
2019-06-26T20:13:10.436Z,20.85
2019-06-26T20:15:37.069Z,22.25
2019-06-26T20:18:04.419Z,26.07
2019-06-26T20:20:32.317Z,25.90
2019-06-26T20:22:58.924Z,26.90
2019-06-26T20:25:25.601Z,23.57
2019-06-26T20:27:57.219Z,27.30
2019-06-26T20:30:26.237Z,24.07
2019-06-26T20:32:54.148Z,27.98
2019-06-26T20:35:20.703Z,23.38
2019-06-26T20:37:47.285Z,24.82
2019-06-26T20:40:14.366Z,22.45
2019-06-26T20:42:41.072Z,25.68
2019-06-26T20:45:08.188Z,23.25
2019-06-26T20:47:34.931Z,19.90
2019-06-26T20:50:01.486Z,26.42
2019-06-26T20:52:28.029Z,22.48
2019-06-26T20:55:00.948Z,24.35
2019-06-26T20:57:23.346Z,26.17
2019-06-26T20:59:50.024Z,25.77
2019-06-26T21:02:16.637Z,24.32
2019-06-26T21:04:43.216Z,24.02
2019-06-26T21:07:09.900Z,23.47
2019-06-26T21:09:36.650Z,26.25
2019-06-26T21:12:03.383Z,25.92
